Latest Weather Observations for Shepparton

IDV60801

Issued at 12:31 pm EDT Saturday 7 March 2015 (issued every 30 minutes, with the page automatically refreshed every 10 minutes)

About weather observations | Map of weather stations | Latest weather observations for VIC | Other Formats
Station Details ID: 081125 Name: SHEPPARTON AIRPORT Lat: -36.43 Lon: 145.39 Height: 113.9 m
Data from the previous 72 hours. | See also: Recent months at Shepparton
Date/Time
EDT
Temp
°C
App
Temp
°C
Dew
Point
Rel
Hum
%
Delta-T
°C
Wind Press
QNH
hPa
Press
MSL
hPa
Rain
since 9 am
mm
Dir
 
Spd
km/h
Gust
km/h
Spd
kts
Gust
kts
07/12:30pm 20.0 18.6 11.0 56 4.9 WSW 9 19 5 10 1012.8 1012.4 0.0
07/12:00pm 18.3 17.0 11.1 63 3.9 WSW 9 15 5 8 1013.2 1012.9 0.0
07/11:30am 17.9 16.9 11.0 64 3.7 SW 7 13 4 7 1013.6 1013.3 0.0
07/11:00am 17.9 17.0 11.2 65 3.7 SSW 7 13 4 7 1013.5 1013.2 0.0
07/10:30am 16.9 15.6 11.2 69 3.1 SW 9 15 5 8 1013.7 1013.4 0.0
07/10:00am 16.6 14.9 11.1 70 3.0 S 11 17 6 9 1013.7 1013.4 0.0
07/09:30am 16.1 14.9 11.5 74 2.5 S 9 15 5 8 1013.4 1013.1 0.0
07/09:00am 15.9 14.5 12.1 78 2.1 S 11 15 6 8 1013.2 1012.9 0.0
07/08:30am 14.7 13.7 12.4 86 1.3 SSW 9 13 5 7 1013.1 1012.8 0.0
07/08:00am 12.7 13.5 12.4 98 0.2 CALM 0 0 0 0 1013.0 1012.7 0.0
07/07:30am 11.1 11.3 10.6 97 0.3 CALM 0 0 0 0 1012.6 1012.2 0.0
07/07:00am 10.7 10.4 10.1 96 0.3 SSW 2 6 1 3 1012.4 1012.0 0.0
07/06:30am 11.3 10.8 10.7 96 0.3 S 4 6 2 3 1012.0 1011.6 0.0
07/06:00am 12.3 12.9 11.8 97 0.3 CALM 0 0 0 0 1012.0 1011.6 0.0
07/05:30am 12.4 13.0 11.8 96 0.3 CALM 0 6 0 3 1011.8 1011.4 0.0
07/05:00am 12.6 11.5 11.8 95 0.4 SW 9 11 5 6 1011.4 1011.0 0.0
07/04:30am 12.7 11.6 11.9 95 0.4 WSW 9 11 5 6 1011.4 1011.0 0.0
07/04:00am 12.9 12.3 11.6 92 0.7 SW 6 7 3 4 1011.5 1011.1 0.0
07/03:30am 13.4 12.2 11.6 89 1.0 WSW 9 11 5 6 1011.6 1011.2 0.0
07/03:00am 14.7 13.4 12.4 86 1.3 S 11 13 6 7 1011.6 1011.2 0.0
07/02:30am 14.8 13.8 12.3 85 1.4 SW 9 11 5 6 1012.0 1011.6 0.0
07/02:00am 15.5 14.2 12.4 82 1.7 SSW 11 15 6 8 1012.3 1011.9 0.0
07/01:30am 16.1 14.5 12.7 80 1.9 SSW 13 17 7 9 1012.4 1012.0 0.0
07/01:00am 16.2 14.2 12.6 79 2.0 S 15 22 8 12 1012.6 1012.2 0.0
07/12:30am 16.7 14.6 12.5 76 2.3 SSW 15 19 8 10 1012.6 1012.2 0.0
07/12:00am 17.1 15.1 12.8 76 2.4 S 15 20 8 11 1012.4 1012.0 0.0
 
Date/Time
EDT
Temp
°C
App
Temp
°C
Dew
Point
Rel
Hum
%
Delta-T
°C
Wind Press
QNH
hPa
Press
MSL
hPa
Rain
since 9 am
mm
Dir
 
Spd
km/h
Gust
km/h
Spd
kts
Gust
kts
06/11:30pm 17.2 14.9 12.9 76 2.4 SW 17 20 9 11 1012.5 1012.1 0.0
06/11:00pm 17.8 16.1 12.5 71 3.0 SSW 13 19 7 10 1012.4 1012.0 0.0
06/10:30pm 18.8 16.7 12.5 67 3.5 S 15 19 8 10 1012.4 1012.0 0.0
06/10:00pm 19.6 17.9 12.4 63 4.1 SSW 13 20 7 11 1012.3 1011.9 0.0
06/09:30pm 20.0 16.9 12.3 61 4.3 S 20 30 11 16 1012.0 1011.6 0.0
06/09:00pm 20.2 17.1 12.2 60 4.5 SSW 20 30 11 16 1011.7 1011.3 0.0
06/08:30pm 20.5 18.2 11.7 57 4.9 S 15 22 8 12 1011.2 1010.8 0.0
06/08:00pm 20.8 18.5 11.7 56 5.1 S 15 24 8 13 1011.0 1010.6 0.0
06/07:30pm 20.9 17.2 11.5 55 5.2 S 22 30 12 16 1010.6 1010.2 0.0
06/07:00pm 21.9 18.7 11.9 53 5.6 SSW 20 26 11 14 1010.4 1010.0 0.0
06/06:30pm 22.4 19.2 11.2 49 6.3 S 19 24 10 13 1010.2 1009.8 0.0
06/06:00pm 22.9 19.6 11.0 47 6.6 SSW 19 28 10 15 1010.2 1009.8 0.0
06/05:30pm 23.1 19.9 11.2 47 6.7 SW 19 24 10 13 1010.0 1009.7 0.0
06/05:00pm 22.4 18.8 10.5 47 6.6 SW 20 26 11 14 1010.2 1009.8 0.0
06/04:30pm 22.8 18.8 10.6 46 6.8 SW 22 32 12 17 1010.3 1009.9 0.0
06/04:00pm 22.7 18.3 10.5 46 6.7 SW 24 35 13 19 1010.3 1009.9 0.0
06/03:30pm 23.3 19.4 10.7 45 7.0 SW 22 30 12 16 1010.5 1010.1 0.0
06/03:00pm 22.9 18.6 10.7 46 6.8 SW 24 35 13 19 1010.7 1010.3 0.0
06/02:30pm 22.5 18.0 10.0 45 6.8 SW 24 35 13 19 1010.9 1010.5 0.0
06/02:00pm 22.3 18.2 10.1 46 6.7 WSW 22 32 12 17 1011.2 1010.8 0.0
06/01:30pm 21.5 17.8 10.3 49 6.1 SW 20 35 11 19 1011.5 1011.1 0.0
06/01:00pm 20.4 15.9 10.2 52 5.5 SW 24 37 13 20 1011.7 1011.3 0.0
06/12:30pm 19.1 14.9 9.6 54 5.1 WSW 22 32 12 17 1012.2 1011.8 0.0
06/12:00pm 18.1 13.7 8.9 55 4.8 WSW 22 33 12 18 1012.4 1012.0 0.0
06/11:30am 17.6 12.3 8.5 55 4.7 WSW 26 39 14 21 1012.9 1012.5 0.0
06/11:00am 17.4 12.8 8.0 54 4.8 WSW 22 37 12 20 1013.0 1012.7 0.0
06/10:30am 16.0 11.2 7.2 56 4.4 W 22 33 12 18 1012.8 1012.4 0.0
06/10:00am 14.9 9.2 6.7 58 4.0 W 26 37 14 20 1012.6 1012.2 0.0
06/09:30am 14.4 8.6 6.3 58 3.9 W 26 33 14 18 1012.7 1012.3 0.0
06/09:00am 13.8 9.1 5.9 59 3.8 W 20 26 11 14 1012.7 1012.3 0.0
06/08:30am 13.5 8.8 5.9 60 3.6 W 20 30 11 16 1012.6 1012.2 0.0
06/08:00am 12.9 8.3 5.6 61 3.4 W 19 24 10 13 1012.6 1012.2 0.0
06/07:30am 12.8 8.6 5.5 61 3.4 WNW 17 22 9 12 1012.4 1012.0 0.0
06/07:00am 12.9 10.2 5.8 62 3.4 W 9 17 5 9 1012.5 1012.1 0.0
06/06:30am 13.0 8.8 5.7 61 3.4 WSW 17 24 9 13 1012.1 1011.7 0.0
06/06:00am 13.2 10.2 5.9 61 3.5 WSW 11 15 6 8 1012.6 1012.2 0.0
06/05:30am 12.9 9.1 6.0 63 3.3 SW 15 20 8 11 1012.8 1012.4 0.0
06/05:00am 12.3 9.3 5.9 65 3.0 WSW 11 17 6 9 1013.2 1012.9 0.0
06/04:30am 11.9 7.6 5.3 64 3.1 SW 17 20 9 11 1013.5 1013.2 0.0
06/04:00am 11.9 7.9 5.1 63 3.1 SW 15 20 8 11 1013.8 1013.5 0.0
06/03:30am 12.1 8.1 4.8 61 3.4 SW 15 20 8 11 1014.0 1013.7 0.0
06/03:00am 11.5 8.2 4.7 63 3.1 WSW 11 15 6 8 1013.9 1013.6 0.0
06/02:30am 11.8 8.5 4.5 61 3.3 WSW 11 15 6 8 1014.3 1014.0 0.0
06/02:00am 11.6 8.6 4.3 61 3.3 WSW 9 11 5 6 1014.8 1014.5 0.0
06/01:30am 12.6 8.9 4.3 57 3.8 SSW 13 19 7 10 1014.9 1014.6 0.0
06/01:00am 12.8 9.4 4.0 55 4.0 SW 11 13 6 7 1014.7 1014.4 0.0
06/12:30am 13.5 10.4 3.8 52 4.4 SW 9 13 5 7 1014.8 1014.5 0.0
06/12:00am 13.8 10.4 3.9 51 4.5 SSW 11 13 6 7 1014.9 1014.6 0.0
 
Date/Time
EDT
Temp
°C
App
Temp
°C
Dew
Point
Rel
Hum
%
Delta-T
°C
Wind Press
QNH
hPa
Press
MSL
hPa
Rain
since 9 am
mm
Dir
 
Spd
km/h
Gust
km/h
Spd
kts
Gust
kts
05/11:30pm 14.8 10.9 3.6 47 5.1 SSW 13 17 7 9 1015.1 1014.8 0.0
05/11:00pm 15.1 11.2 3.3 45 5.4 SSW 13 15 7 8 1015.1 1014.8 0.0
05/10:30pm 15.4 11.7 2.6 42 5.8 SSW 11 15 6 8 1015.2 1014.9 0.0
05/10:00pm 16.4 12.3 2.1 38 6.4 SSW 13 19 7 10 1015.2 1014.9 0.0
05/09:30pm 16.9 12.7 1.4 35 6.9 SSW 13 17 7 9 1015.4 1015.1 0.0
05/09:00pm 17.4 12.7 0.6 32 7.4 SSW 15 22 8 12 1015.1 1014.8 0.0
05/08:30pm 17.7 12.2 0.4 31 7.6 S 19 24 10 13 1014.7 1014.4 0.0
05/08:00pm 18.4 12.7 0.5 30 7.9 S 20 28 11 15 1014.4 1014.1 0.0
05/07:30pm 19.3 13.7 -0.1 27 8.5 S 19 28 10 15 1014.3 1014.0 0.0
05/07:00pm 20.3 14.5 -0.3 25 9.1 S 20 28 11 15 1014.3 1014.0 0.0
05/06:30pm 21.0 14.8 -0.3 24 9.5 S 22 33 12 18 1014.0 1013.7 0.0
05/06:00pm 21.3 14.4 -0.1 24 9.6 S 26 41 14 22 1014.0 1013.7 0.0
05/05:30pm 21.1 14.1 -0.2 24 9.5 S 26 37 14 20 1014.1 1013.8 0.0
05/05:00pm 20.9 13.9 -0.4 24 9.5 SW 26 37 14 20 1014.4 1014.1 0.0
05/04:30pm 21.3 13.2 -0.6 23 9.7 SSW 32 39 17 21 1014.7 1014.4 0.0
05/04:00pm 20.7 12.5 -1.2 23 9.5 S 32 43 17 23 1015.0 1014.7 0.0
05/03:30pm 19.5 11.2 -1.6 24 9.0 S 32 44 17 24 1015.4 1015.1 0.0
05/03:12pm 20.4 13.1 -0.3 25 9.2 SSW 28 46 15 25 1015.6 1015.3 0.0
05/03:00pm 20.8 11.9 -1.7 22 9.7 SSW 35 46 19 25 1015.7 1015.4 0.0
05/02:30pm 21.5 12.8 -0.5 23 9.8 S 35 50 19 27 1015.8 1015.5 0.0
05/02:00pm 20.0 11.9 1.0 28 8.6 S 33 54 18 29 1016.1 1015.8 0.0
05/01:44pm 20.4 13.0 1.8 29 8.6 S 30 48 16 26 1016.0 1015.7 0.0
05/01:30pm 20.1 12.1 0.5 27 8.8 SSW 32 44 17 24 1016.2 1015.9 0.0
05/01:08pm 19.5 11.5 1.5 30 8.2 S 33 50 18 27 1016.5 1016.2 0.0
05/01:07pm 19.5 11.1 1.5 30 8.2 S 35 50 19 27 1016.6 1016.3 0.0
05/01:00pm 19.2 10.6 0.3 28 8.4 SSW 35 48 19 26 1016.5 1016.2 0.0
05/12:34pm 18.7 8.6 0.3 29 8.1 SSW 43 61 23 33 1016.7 1016.4 0.0
05/12:30pm 18.6 9.2 -0.2 28 8.2 S 39 54 21 29 1016.9 1016.6 0.0
05/12:09pm 18.7 10.0 -0.2 28 8.3 SSW 35 56 19 30 1017.0 1016.7 0.0
05/12:00pm 19.1 10.8 2.0 32 7.8 SSW 35 46 19 25 1017.2 1016.9 0.0
05/11:37am 18.0 9.6 1.5 33 7.4 S 35 54 19 29 1017.3 1017.0 0.0
05/11:30am 17.4 8.2 1.4 34 7.2 S 39 54 21 29 1017.2 1016.9 0.0
05/11:12am 16.6 7.8 1.1 35 6.8 S 37 56 20 30 1017.3 1017.0 0.0
05/11:00am 17.2 7.6 1.2 34 7.1 S 41 56 22 30 1017.3 1017.0 0.0
05/10:30am 15.8 7.3 1.2 37 6.4 S 35 57 19 31 1017.0 1016.7 0.0
05/10:04am 15.7 6.7 2.2 40 6.0 S 39 57 21 31 1016.8 1016.5 0.0
05/10:00am 15.0 5.1 1.5 40 5.9 S 43 57 23 31 1016.6 1016.3 0.0
05/09:30am 14.1 5.8 2.0 44 5.3 SSW 35 56 19 30 1016.5 1016.2 0.0
05/09:05am 13.8 5.2 2.4 46 5.0 SSW 37 56 20 30 1016.2 1015.9 0.0
05/09:00am 13.5 4.9 2.4 47 4.9 SSW 37 50 20 27 1016.1 1015.8 0.0
05/08:45am 13.4 4.4 2.3 47 4.9 SSW 39 57 21 31 1015.8 1015.5 0.0
05/08:30am 13.0 5.3 2.5 49 4.6 S 32 44 17 24 1015.9 1015.6 0.0
05/08:06am 12.6 4.8 3.0 52 4.3 S 33 52 18 28 1015.2 1014.9 0.0
05/08:00am 12.5 4.0 2.9 52 4.2 SSW 37 52 20 28 1015.1 1014.8 0.0
05/07:30am 12.4 3.9 3.1 53 4.1 S 37 59 20 32 1014.9 1014.6 0.0
05/07:26am 12.4 3.9 3.1 53 4.1 S 37 56 20 30 1014.8 1014.5 0.0
05/07:00am 12.8 4.5 4.0 55 4.0 S 37 54 20 29 1014.5 1014.2 0.0
05/06:32am 13.6 5.3 4.2 53 4.3 SSW 37 56 20 30 1013.4 1013.1 0.0
05/06:30am 13.6 5.3 4.2 53 4.3 SSW 37 52 20 28 1013.4 1013.1 0.0
05/06:05am 13.7 5.1 8.1 69 2.8 S 43 61 23 33 1013.2 1012.9 0.0
05/06:00am 13.9 4.7 8.1 68 2.9 S 46 61 25 33 1013.1 1012.8 0.0
05/05:48am 15.3 8.8 8.3 63 3.5 SSW 32 65 17 35 1012.3 1011.9 0.0
05/05:30am 15.9 9.7 9.3 65 3.4 SW 32 43 17 23 1011.8 1011.4 0.0
05/05:00am 15.4 11.2 11.0 75 2.4 SW 24 39 13 21 1011.3 1010.9 0.0
05/04:30am 14.8 9.0 11.4 80 1.8 WSW 33 59 18 32 1011.3 1010.9 0.0
05/04:23am 15.3 11.1 11.1 76 2.3 WSW 24 59 13 32 1011.5 1011.1 0.0
05/04:00am 16.0 12.2 9.7 66 3.3 W 20 28 11 15 1010.6 1010.2 0.0
05/03:30am 16.7 12.4 9.4 62 3.8 W 22 32 12 17 1010.6 1010.2 0.0
05/03:00am 16.7 12.0 9.1 61 4.0 WSW 24 32 13 17 1010.5 1010.1 0.0
05/02:30am 16.9 12.2 9.3 61 4.0 WSW 24 33 13 18 1010.9 1010.5 0.0
05/02:00am 17.5 12.4 9.2 58 4.4 WSW 26 37 14 20 1010.8 1010.4 0.0
05/01:30am 17.9 13.2 9.3 57 4.5 W 24 32 13 17 1010.7 1010.3 0.0
05/01:00am 18.4 13.8 9.5 56 4.7 W 24 35 13 19 1010.5 1010.1 0.0
05/12:30am 18.7 13.9 8.9 53 5.1 W 24 32 13 17 1010.6 1010.2 0.0
05/12:00am 19.1 14.3 8.7 51 5.5 W 24 33 13 18 1010.6 1010.2 0.0
 
Date/Time
EDT
Temp
°C
App
Temp
°C
Dew
Point
Rel
Hum
%
Delta-T
°C
Wind Press
QNH
hPa
Press
MSL
hPa
Rain
since 9 am
mm
Dir
 
Spd
km/h
Gust
km/h
Spd
kts
Gust
kts
04/11:30pm 19.2 14.9 7.9 48 5.8 W 20 28 11 15 1010.7 1010.3 0.0
04/11:00pm 19.1 15.7 7.8 48 5.8 W 15 19 8 10 1010.7 1010.3 0.0
04/10:30pm 19.3 15.8 7.4 46 6.1 W 15 19 8 10 1010.6 1010.2 0.0
04/10:00pm 20.3 16.8 7.0 42 6.8 WNW 15 20 8 11 1010.5 1010.1 0.0
04/09:30pm 20.5 17.6 6.4 40 7.1 WNW 11 15 6 8 1010.3 1009.9 0.0
04/09:00pm 21.3 17.5 5.6 36 7.9 WNW 15 20 8 11 1010.3 1009.9 0.0
04/08:30pm 22.1 18.0 4.6 32 8.6 WNW 15 20 8 11 1010.3 1009.9 0.0
04/08:00pm 23.5 18.3 3.4 27 9.8 WNW 20 32 11 17 1010.2 1009.8 0.0
04/07:30pm 24.6 19.2 2.7 24 10.6 WNW 20 30 11 16 1010.0 1009.7 0.0
04/07:00pm 25.8 19.7 0.5 19 11.9 WNW 22 32 12 17 1009.8 1009.5 0.0
04/06:30pm 26.5 19.9 -0.5 17 12.5 WNW 24 32 13 17 1009.9 1009.6 0.0
04/06:00pm 26.6 20.9 -0.4 17 12.6 W 19 28 10 15 1010.2 1009.8 0.0
04/05:30pm 26.8 21.4 1.3 19 12.2 W 19 26 10 14 1010.4 1010.0 0.0
04/05:00pm 26.9 20.3 -0.2 17 12.7 W 24 37 13 20 1010.6 1010.2 0.0
04/04:30pm 27.1 20.8 1.5 19 12.4 W 24 35 13 19 1010.8 1010.4 0.0
04/04:00pm 27.0 20.1 -0.1 17 12.7 W 26 39 14 21 1011.1 1010.7 0.0
04/03:30pm 26.4 20.8 0.9 19 12.1 W 20 30 11 16 1011.5 1011.1 0.0
04/03:00pm 26.3 20.7 0.9 19 12.1 W 20 32 11 17 1012.2 1011.8 0.0
04/02:30pm 25.3 19.2 2.7 23 11.0 W 24 35 13 19 1012.7 1012.3 0.0
04/02:00pm 26.4 21.4 4.8 25 11.0 WSW 20 30 11 16 1012.8 1012.4 0.0
04/01:30pm 24.6 19.8 5.4 29 9.8 W 20 41 11 22 1013.3 1013.0 0.0
04/01:00pm 24.4 20.0 6.6 32 9.3 WSW 19 32 10 17 1013.8 1013.5 0.0

Other Formats:

Comma delimited format used in spreadsheet applications
http://www.bom.gov.au/fwo/IDV60801/IDV60801.94875.axf

JavaScript Object Notation format (JSON) in row-major order
http://www.bom.gov.au/fwo/IDV60801/IDV60801.94875.json